Nearby METAR Reports

 

KMQS - Coatesville, Pennsylvania, USA
Distance from station: ENE 6mi, 10km
Updated: Mon, 21-May-2018 8:15pm EDT
Clear
Clear
 Wind from calm
Wind: Calm
Temperature: 72°F , 22°C
Dew Point: 52°F , 11°C
Humidity: 50%
Barometer: 30.16 inHg , 1021.3 hPa
Clouds: Clear
Visibility: 10 miles , 16 km
2018/05/22 00:15 KMQS 220015Z AUTO 00000KT 10SM CLR 22/11 A3016 RMK AO2
KLNS - Lancaster, Pennsylvania, USA
Distance from station: NW 21mi, 33km
Updated: Mon, 21-May-2018 7:53pm EDT
Clear
Clear
 Wind from SE
Wind: SE 5 mph , 7 km/h
Temperature: 72°F , 22°C
Dew Point: 57°F , 14°C
Humidity: 61%
Barometer: 30.14 inHg , 1020.7 hPa
Clouds: Clear
Visibility: 10 miles , 16 km
2018/05/21 23:53 KLNS 212353Z 13004KT 10SM CLR 22/14 A3014 RMK AO2 SLP204 T02170139 10267 20217 53002
 
KILG - Wilmington, Delaware, USA
Distance from station: SE 28mi, 45km
Updated: Mon, 21-May-2018 7:51pm EDT
Clear
Clear
 Wind from S
Wind: S 14 mph , 22 km/h
Temperature: 66°F , 19°C
Dew Point: 55°F , 13°C
Humidity: 68%
Barometer: 30.16 inHg , 1021.3 hPa
Clouds: Clear
Visibility: 10 miles , 16 km
2018/05/21 23:51 KILG 212351Z 17012KT 10SM CLR 19/13 A3016 RMK AO2 SLP213 T01940133 10261 20194 53009
KRDG - Reading, Pennsylvania, USA
Distance from station: N 29mi, 47km
Updated: Mon, 21-May-2018 7:54pm EDT
Clear
Clear
 Wind from S
Wind: S 5 mph , 7 km/h
Temperature: 73°F , 23°C
Dew Point: 52°F , 11°C
Humidity: 47%
Barometer: 30.12 inHg , 1020 hPa
Clouds: Clear
Visibility: 10 miles , 16 km
2018/05/21 23:54 KRDG 212354Z 18004KT 10SM CLR 23/11 A3012 RMK AO2 SLP204 T02280106 10261 20228 55000
 
KPTW - Pottstown, Pennsylvania, USA
Distance from station: NE 30mi, 48km
Updated: Mon, 21-May-2018 7:54pm EDT
Clear
Clear
 Wind from S
Wind: S 3 mph , 6 km/h
Temperature: 73°F , 23°C
Dew Point: 46°F , 8°C
Humidity: 38%
Barometer: 30.16 inHg , 1021.3 hPa
Clouds: Clear
Visibility: 10 miles , 16 km
2018/05/21 23:54 KPTW 212354Z AUTO 17003KT 10SM CLR 23/08 A3016 RMK AO2 SLP209 T02280083 10244 20228 53002